Star, Texas
Current Conditions -  °F | °C
As of 7:35 PM on Tuesday 21 Oct 2014 (Local Time) from KMNZ Reporting Station
Clear Clear  
Wind Chill: 69°   Ceiling: Unl
Heat Index: 69°   Visibility: 10mi
Dew Point: 50°   Wind: 7mph
Humidity: 50%   Direction: 110°ESE
Pressure: 30.06"   Gusts: NA
Location:  31.47°N, 98.32°W
Report Text: KMNZ 220035Z AUTO 11006KT 10SM CLR 21/10 A3006 RMK AO2 T02070098
Loading
Personal Weather Stations






























Interactive Weather Map
Tropical Storm Tracking
New forecast layout! Learn more

10-Day Weather Forecast

Advertisements
Track Severe Weather on mobile